createdAt,value
2022-08-20T00:01:48.134Z,21.60
2022-08-20T00:04:17.689Z,21.60
2022-08-20T00:06:46.303Z,21.60
2022-08-20T00:09:16.192Z,21.60
2022-08-20T00:11:44.275Z,21.50
2022-08-20T00:14:12.427Z,21.40
2022-08-20T00:16:43.181Z,21.30
2022-08-20T00:19:13.102Z,21.40
2022-08-20T00:21:41.573Z,21.50
2022-08-20T00:24:10.178Z,21.40
2022-08-20T00:26:52.311Z,21.30
2022-08-20T00:29:22.331Z,21.30
2022-08-20T00:31:51.291Z,21.20
2022-08-20T00:34:19.957Z,21.20
2022-08-20T00:36:48.129Z,21.20
2022-08-20T00:39:16.203Z,21.20
2022-08-20T00:41:46.400Z,21.30
2022-08-20T00:44:18.516Z,21.20
2022-08-20T00:46:47.764Z,21.20
2022-08-20T00:49:19.562Z,21.20
2022-08-20T00:51:51.576Z,20.80
2022-08-20T00:54:24.968Z,20.50
2022-08-20T00:57:00.251Z,20.90
2022-08-20T00:59:31.830Z,21.10
2022-08-20T01:02:01.665Z,21.10
2022-08-20T01:04:33.346Z,21.00
2022-08-20T01:07:01.733Z,21.00
2022-08-20T01:09:50.275Z,21.00
2022-08-20T01:12:20.693Z,21.10
2022-08-20T01:14:49.078Z,21.20
2022-08-20T01:17:21.175Z,21.20
2022-08-20T01:19:52.868Z,21.20
2022-08-20T01:22:46.932Z,21.30
2022-08-20T01:25:23.925Z,21.40
2022-08-20T01:27:55.471Z,21.20
2022-08-20T01:30:26.305Z,21.20
2022-08-20T01:32:54.414Z,21.10
2022-08-20T01:35:23.952Z,21.00
2022-08-20T01:37:52.700Z,21.00
2022-08-20T01:40:34.129Z,20.90
2022-08-20T01:43:09.752Z,21.00
2022-08-20T01:45:40.205Z,21.10
2022-08-20T01:48:08.894Z,21.20
2022-08-20T01:50:42.501Z,21.10
2022-08-20T01:53:18.636Z,21.10
2022-08-20T01:55:46.778Z,21.10
2022-08-20T01:58:16.503Z,21.00
2022-08-20T02:00:44.664Z,21.00
2022-08-20T02:03:13.089Z,21.10
2022-08-20T02:05:41.137Z,21.10
2022-08-20T02:08:09.745Z,21.10
2022-08-20T02:10:38.307Z,21.20
2022-08-20T02:13:08.904Z,21.10
2022-08-20T02:15:39.757Z,21.00
2022-08-20T02:18:14.868Z,21.00
2022-08-20T02:20:44.905Z,21.00
2022-08-20T02:23:15.660Z,20.90
2022-08-20T02:25:47.368Z,20.80
2022-08-20T02:28:19.397Z,20.90
2022-08-20T02:30:52.020Z,20.90
2022-08-20T02:33:24.214Z,21.00
2022-08-20T02:35:55.760Z,20.90
2022-08-20T02:38:23.978Z,20.90
2022-08-20T02:40:53.266Z,20.90
2022-08-20T02:43:21.650Z,20.90
2022-08-20T02:45:51.641Z,21.00
2022-08-20T02:48:23.233Z,21.00
2022-08-20T02:50:54.153Z,21.00
2022-08-20T02:53:23.406Z,20.90
2022-08-20T02:55:52.495Z,20.90
2022-08-20T02:58:21.698Z,20.80
2022-08-20T03:00:51.654Z,20.80
2022-08-20T03:03:22.994Z,20.80
2022-08-20T03:05:53.736Z,20.70
2022-08-20T03:08:23.384Z,20.70
2022-08-20T03:10:52.806Z,20.60
2022-08-20T03:13:23.035Z,20.60
2022-08-20T03:15:58.599Z,20.70
2022-08-20T03:18:29.785Z,20.70
2022-08-20T03:20:58.569Z,20.60
2022-08-20T03:23:26.919Z,20.60
2022-08-20T03:25:54.993Z,20.50
2022-08-20T03:28:23.121Z,20.50
2022-08-20T03:30:53.282Z,20.50
2022-08-20T03:33:22.287Z,20.40
2022-08-20T03:35:50.607Z,20.60
2022-08-20T03:38:25.001Z,20.50
2022-08-20T03:41:01.942Z,20.40
2022-08-20T03:43:30.357Z,20.00
2022-08-20T03:46:00.129Z,19.90
2022-08-20T03:48:29.005Z,20.10
2022-08-20T03:51:01.054Z,20.30
2022-08-20T03:53:31.601Z,20.30
2022-08-20T03:56:03.638Z,20.30
2022-08-20T03:58:35.486Z,20.30
2022-08-20T04:01:08.978Z,20.40
2022-08-20T04:03:58.901Z,20.40
2022-08-20T04:06:27.813Z,20.30
2022-08-20T04:08:55.930Z,20.30
2022-08-20T04:11:24.552Z,20.20
2022-08-20T04:13:53.103Z,20.30
2022-08-20T04:16:23.882Z,20.30
2022-08-20T04:19:01.513Z,20.20
2022-08-20T04:21:32.721Z,20.20
2022-08-20T04:24:02.647Z,20.20
2022-08-20T04:26:31.093Z,20.20
2022-08-20T04:28:59.913Z,20.30
2022-08-20T04:31:33.673Z,20.30
2022-08-20T04:34:03.418Z,20.30
2022-08-20T04:36:31.974Z,20.30
2022-08-20T04:39:00.362Z,20.30
2022-08-20T04:41:28.977Z,20.30
2022-08-20T04:43:58.141Z,20.40
2022-08-20T04:46:29.134Z,20.30
2022-08-20T04:48:58.670Z,20.40
2022-08-20T04:51:27.358Z,20.40
2022-08-20T04:53:56.944Z,20.40
2022-08-20T04:56:26.676Z,20.30
2022-08-20T04:58:56.806Z,20.30
2022-08-20T05:01:26.275Z,20.40
2022-08-20T05:03:58.207Z,20.40
2022-08-20T05:06:29.840Z,21.00
2022-08-20T05:09:01.007Z,21.20
2022-08-20T05:11:35.924Z,21.20
2022-08-20T05:14:08.012Z,21.20
2022-08-20T05:16:38.955Z,21.20
2022-08-20T05:19:09.038Z,21.30
2022-08-20T05:21:39.010Z,21.40
2022-08-20T05:24:07.966Z,21.40
2022-08-20T05:26:36.904Z,21.40
2022-08-20T05:29:06.828Z,21.40
2022-08-20T05:31:35.280Z,21.40
2022-08-20T05:34:03.658Z,21.40
2022-08-20T05:36:31.732Z,21.40
2022-08-20T05:39:01.182Z,21.50
2022-08-20T05:41:30.714Z,21.50
2022-08-20T05:44:01.933Z,21.50
2022-08-20T05:46:31.271Z,21.50
2022-08-20T05:49:02.142Z,21.50
2022-08-20T05:51:30.865Z,21.50
2022-08-20T05:54:00.407Z,21.60
2022-08-20T05:56:31.522Z,21.60
2022-08-20T05:59:02.617Z,21.60
2022-08-20T06:01:31.286Z,21.70
2022-08-20T06:04:17.050Z,21.60
2022-08-20T06:06:47.324Z,21.60
2022-08-20T06:09:31.031Z,21.40
2022-08-20T06:12:01.051Z,21.40
2022-08-20T06:14:29.497Z,21.40
2022-08-20T06:17:04.743Z,21.50
2022-08-20T06:19:34.370Z,21.40
2022-08-20T06:22:17.242Z,21.40
2022-08-20T06:24:53.570Z,21.30
2022-08-20T06:27:21.742Z,21.50
2022-08-20T06:29:50.565Z,21.60
2022-08-20T06:32:28.854Z,21.70
2022-08-20T06:35:03.137Z,21.60
2022-08-20T06:37:33.150Z,21.50
2022-08-20T06:40:06.675Z,21.60
2022-08-20T06:42:35.495Z,21.60
2022-08-20T06:45:05.837Z,21.70
2022-08-20T06:47:35.466Z,21.80
2022-08-20T06:50:03.528Z,21.70
2022-08-20T06:52:47.126Z,21.70
2022-08-20T06:55:22.740Z,21.70
2022-08-20T06:57:59.439Z,22.00
2022-08-20T07:00:28.576Z,22.40
2022-08-20T07:02:59.737Z,22.10
2022-08-20T07:05:27.934Z,22.10
2022-08-20T07:07:56.425Z,22.50
2022-08-20T07:10:27.057Z,22.50
2022-08-20T07:12:56.728Z,22.50
2022-08-20T07:15:27.087Z,22.70
2022-08-20T07:18:01.218Z,23.20
2022-08-20T07:20:31.759Z,23.20
2022-08-20T07:23:00.629Z,22.80
2022-08-20T07:25:32.033Z,22.70
2022-08-20T07:28:02.621Z,22.60
2022-08-20T07:30:56.851Z,22.50
2022-08-20T07:33:28.351Z,22.50
2022-08-20T07:35:57.062Z,22.50
2022-08-20T07:38:26.606Z,22.20
2022-08-20T07:40:59.316Z,21.90
2022-08-20T07:43:28.412Z,22.00
2022-08-20T07:46:00.752Z,22.30
2022-08-20T07:48:32.532Z,22.10
2022-08-20T07:51:03.871Z,22.30
2022-08-20T07:53:35.962Z,22.10
2022-08-20T07:56:07.432Z,22.10
2022-08-20T07:58:37.596Z,22.00
2022-08-20T08:01:06.750Z,21.80
2022-08-20T08:03:39.703Z,21.90
2022-08-20T08:06:28.349Z,22.00
2022-08-20T08:08:59.337Z,22.00
2022-08-20T08:11:29.819Z,21.90
2022-08-20T08:13:58.038Z,21.70
2022-08-20T08:16:26.507Z,21.80
2022-08-20T08:18:56.909Z,21.90
2022-08-20T08:21:25.875Z,21.90
2022-08-20T08:23:53.996Z,21.90
2022-08-20T08:26:23.053Z,21.90
2022-08-20T08:28:52.503Z,21.70
2022-08-20T08:31:20.563Z,21.50
2022-08-20T08:33:49.030Z,21.50
2022-08-20T08:36:17.701Z,21.20
2022-08-20T08:38:47.392Z,21.40
2022-08-20T08:41:20.050Z,21.80
2022-08-20T08:43:50.818Z,21.60
2022-08-20T08:46:25.103Z,21.70
2022-08-20T08:48:57.467Z,21.70
2022-08-20T08:51:33.946Z,21.90
2022-08-20T08:54:06.606Z,21.90
2022-08-20T08:56:36.426Z,22.00
2022-08-20T08:59:08.969Z,22.10
2022-08-20T09:01:54.582Z,22.10
2022-08-20T09:04:31.661Z,22.10
2022-08-20T09:07:02.424Z,22.20
2022-08-20T09:09:38.006Z,22.30
2022-08-20T09:12:09.031Z,22.50
2022-08-20T09:14:37.503Z,22.40
2022-08-20T09:17:07.853Z,22.40
2022-08-20T09:19:35.934Z,22.40
2022-08-20T09:22:09.357Z,22.40
2022-08-20T09:24:37.489Z,22.40
2022-08-20T09:27:06.572Z,22.50
2022-08-20T09:29:34.955Z,22.50
2022-08-20T09:32:10.641Z,22.50
2022-08-20T09:34:40.766Z,22.40
2022-08-20T09:37:09.259Z,22.30
2022-08-20T09:39:37.609Z,22.40
2022-08-20T09:42:10.440Z,22.50
2022-08-20T09:44:38.870Z,22.50
2022-08-20T09:47:09.314Z,22.50
2022-08-20T09:49:37.878Z,22.60
2022-08-20T09:52:08.583Z,22.70
2022-08-20T09:54:38.652Z,22.50
2022-08-20T09:57:13.613Z,22.60
2022-08-20T09:59:41.735Z,22.70
2022-08-20T10:02:11.244Z,22.80
2022-08-20T10:04:39.615Z,22.80
2022-08-20T10:07:09.854Z,22.70
2022-08-20T10:09:39.371Z,22.80
2022-08-20T10:12:08.848Z,22.80
2022-08-20T10:14:37.466Z,22.80
2022-08-20T10:17:05.725Z,23.00
2022-08-20T10:19:35.708Z,23.10
2022-08-20T10:22:04.263Z,23.30
2022-08-20T10:24:32.564Z,23.40
2022-08-20T10:27:02.250Z,23.60
2022-08-20T10:29:32.147Z,23.80
2022-08-20T10:32:10.016Z,24.00
2022-08-20T10:34:40.519Z,24.40
2022-08-20T10:37:09.193Z,24.50
2022-08-20T10:39:37.674Z,24.30
2022-08-20T10:42:05.938Z,24.50
2022-08-20T10:44:33.999Z,24.60
2022-08-20T10:47:15.576Z,24.60
2022-08-20T10:49:45.143Z,24.70
2022-08-20T10:52:13.238Z,24.80
2022-08-20T10:54:42.595Z,24.90
2022-08-20T10:57:14.504Z,25.10
2022-08-20T10:59:44.201Z,25.50
2022-08-20T11:02:12.313Z,25.50
2022-08-20T11:04:41.884Z,25.30
2022-08-20T11:07:17.266Z,25.50
2022-08-20T11:09:46.979Z,25.50
2022-08-20T11:12:15.387Z,25.70
2022-08-20T11:14:43.996Z,25.60
2022-08-20T11:17:13.031Z,25.40
2022-08-20T11:19:42.555Z,25.60
2022-08-20T11:22:11.088Z,25.70
2022-08-20T11:24:40.569Z,25.80
2022-08-20T11:27:09.983Z,25.70
2022-08-20T11:29:38.992Z,25.80
2022-08-20T11:32:07.641Z,25.90
2022-08-20T11:34:35.975Z,25.90
2022-08-20T11:37:04.337Z,25.70
2022-08-20T11:39:32.857Z,25.50
2022-08-20T11:42:02.467Z,25.60
2022-08-20T11:44:30.556Z,25.90
2022-08-20T11:47:03.842Z,26.00
2022-08-20T11:49:32.533Z,25.80
2022-08-20T11:52:00.651Z,25.90
2022-08-20T11:54:29.986Z,26.00
2022-08-20T11:56:58.875Z,25.90
2022-08-20T11:59:29.226Z,25.90
2022-08-20T12:02:03.294Z,25.90
2022-08-20T12:04:33.561Z,26.20
2022-08-20T12:07:11.081Z,25.90
2022-08-20T12:09:40.033Z,26.00
2022-08-20T12:12:16.611Z,25.70
2022-08-20T12:14:46.021Z,25.90
2022-08-20T12:17:18.074Z,25.90
2022-08-20T12:19:46.415Z,26.10
2022-08-20T12:22:25.005Z,25.90
2022-08-20T12:24:54.135Z,25.90
2022-08-20T12:27:24.429Z,26.20
2022-08-20T12:29:56.033Z,26.50
2022-08-20T12:32:26.160Z,26.50
2022-08-20T12:34:55.011Z,26.00
2022-08-20T12:37:25.868Z,26.10
2022-08-20T12:39:56.746Z,26.20
2022-08-20T12:42:25.236Z,26.10
2022-08-20T12:44:55.145Z,26.50
2022-08-20T12:47:25.083Z,26.10
2022-08-20T12:49:55.963Z,26.00
2022-08-20T12:52:26.127Z,26.10
2022-08-20T12:54:55.723Z,26.20
2022-08-20T12:57:28.650Z,26.00
2022-08-20T12:59:59.976Z,25.80
2022-08-20T13:02:28.879Z,25.30
2022-08-20T13:05:00.112Z,25.80
2022-08-20T13:07:31.596Z,25.30
2022-08-20T13:10:00.657Z,25.10
2022-08-20T13:12:28.881Z,24.90
2022-08-20T13:14:58.352Z,24.70
2022-08-20T13:17:38.273Z,25.10
2022-08-20T13:20:10.013Z,25.20
2022-08-20T13:22:38.540Z,25.10
2022-08-20T13:25:07.747Z,24.60
2022-08-20T13:27:38.718Z,24.60
2022-08-20T13:30:10.831Z,24.70
2022-08-20T13:32:39.057Z,24.60
2022-08-20T13:35:07.838Z,25.00
2022-08-20T13:37:36.378Z,24.70
2022-08-20T13:40:07.385Z,24.50
2022-08-20T13:42:36.033Z,24.90
2022-08-20T13:45:06.043Z,24.60
2022-08-20T13:47:37.171Z,24.80
2022-08-20T13:50:10.315Z,24.80
2022-08-20T13:52:39.342Z,24.80
2022-08-20T13:55:13.335Z,24.80
2022-08-20T13:57:43.657Z,24.70
2022-08-20T14:00:14.900Z,25.10
2022-08-20T14:02:45.466Z,25.30
2022-08-20T14:05:17.173Z,25.40
2022-08-20T14:07:47.236Z,25.40
2022-08-20T14:10:18.976Z,25.50
2022-08-20T14:12:48.314Z,25.30
2022-08-20T14:15:16.498Z,25.00
2022-08-20T14:17:53.514Z,25.50
2022-08-20T14:20:25.114Z,25.20
2022-08-20T14:22:58.586Z,25.70
2022-08-20T14:25:27.514Z,24.80
2022-08-20T14:27:56.761Z,25.50
2022-08-20T14:30:26.815Z,26.20
2022-08-20T14:32:57.140Z,26.20
2022-08-20T14:35:25.595Z,24.80
2022-08-20T14:37:55.856Z,25.10
2022-08-20T14:40:25.886Z,24.60
2022-08-20T14:42:54.616Z,25.40
2022-08-20T14:45:23.782Z,25.40
2022-08-20T14:47:54.450Z,25.50
2022-08-20T14:50:27.354Z,26.10
2022-08-20T14:52:56.583Z,26.30
2022-08-20T14:55:26.498Z,25.90
2022-08-20T14:57:55.067Z,26.10
2022-08-20T15:00:26.554Z,26.10
2022-08-20T15:02:55.273Z,25.40
2022-08-20T15:05:24.918Z,25.90
2022-08-20T15:07:53.896Z,26.10
2022-08-20T15:10:26.053Z,25.90
2022-08-20T15:12:54.211Z,26.10
2022-08-20T15:15:23.368Z,26.30
2022-08-20T15:17:53.805Z,26.30
2022-08-20T15:20:29.075Z,25.80
2022-08-20T15:22:57.763Z,25.60
2022-08-20T15:25:36.964Z,25.60
2022-08-20T15:28:07.231Z,25.20
2022-08-20T15:30:35.720Z,26.10
2022-08-20T15:33:03.970Z,26.30
2022-08-20T15:35:33.555Z,26.40
2022-08-20T15:38:01.980Z,26.40
2022-08-20T15:40:31.815Z,26.50
2022-08-20T15:43:01.709Z,26.40
2022-08-20T15:45:31.821Z,25.70
2022-08-20T15:48:08.391Z,25.00
2022-08-20T15:51:00.407Z,25.10
2022-08-20T15:53:34.625Z,25.00
2022-08-20T15:56:10.343Z,25.80
2022-08-20T15:58:49.683Z,26.10
2022-08-20T16:01:28.297Z,25.80
2022-08-20T16:04:19.319Z,25.80
2022-08-20T16:06:51.481Z,26.10
2022-08-20T16:09:39.219Z,26.30
2022-08-20T16:12:11.343Z,25.90
2022-08-20T16:14:42.011Z,25.60
2022-08-20T16:17:14.596Z,23.80
2022-08-20T16:19:52.141Z,24.10
2022-08-20T16:22:22.711Z,25.00
2022-08-20T16:24:51.568Z,25.50
2022-08-20T16:27:28.643Z,25.80
2022-08-20T16:30:02.833Z,25.60
2022-08-20T16:32:39.711Z,25.20
2022-08-20T16:35:29.685Z,25.60
2022-08-20T16:38:08.362Z,26.00
2022-08-20T16:40:44.309Z,26.20
2022-08-20T16:43:24.222Z,26.20
2022-08-20T16:45:59.998Z,25.90
2022-08-20T16:48:35.331Z,25.70
2022-08-20T16:51:07.153Z,25.60
2022-08-20T16:53:37.478Z,25.60
2022-08-20T16:56:06.093Z,25.60
2022-08-20T16:58:34.580Z,25.50
2022-08-20T17:01:09.118Z,25.50
2022-08-20T17:03:39.418Z,25.40
2022-08-20T17:06:17.346Z,25.60
2022-08-20T17:08:51.448Z,25.30
2022-08-20T17:11:26.315Z,25.30
2022-08-20T17:14:06.167Z,24.70
2022-08-20T17:16:36.952Z,24.50
2022-08-20T17:19:14.823Z,25.00
2022-08-20T17:21:44.348Z,24.90
2022-08-20T17:24:23.516Z,25.00
2022-08-20T17:26:58.231Z,24.90
2022-08-20T17:29:28.904Z,24.80
2022-08-20T17:31:59.198Z,24.70
2022-08-20T17:34:29.754Z,24.90
2022-08-20T17:36:59.782Z,25.20
2022-08-20T17:39:31.999Z,25.20
2022-08-20T17:42:09.007Z,25.10
2022-08-20T17:44:42.670Z,24.90
2022-08-20T17:47:16.032Z,25.00
2022-08-20T17:50:01.228Z,24.90
2022-08-20T17:52:35.444Z,24.90
2022-08-20T17:55:07.604Z,24.90
2022-08-20T17:57:40.839Z,24.60
2022-08-20T18:00:14.428Z,24.50
2022-08-20T18:02:42.931Z,24.30
2022-08-20T18:05:17.400Z,24.20
2022-08-20T18:07:59.707Z,24.20
2022-08-20T18:10:31.051Z,24.10
2022-08-20T18:13:05.934Z,23.90
2022-08-20T18:15:38.956Z,24.10
2022-08-20T18:18:18.481Z,24.20
2022-08-20T18:21:14.446Z,24.10
2022-08-20T18:23:47.886Z,24.10
2022-08-20T18:26:22.728Z,24.10
2022-08-20T18:28:55.289Z,24.10
2022-08-20T18:31:28.287Z,24.00
2022-08-20T18:33:57.751Z,23.60
2022-08-20T18:36:30.399Z,22.90
2022-08-20T18:39:03.796Z,22.80
2022-08-20T18:41:35.553Z,22.90
2022-08-20T18:44:06.835Z,23.10
2022-08-20T18:46:35.785Z,23.20
2022-08-20T18:49:07.330Z,23.30
2022-08-20T18:51:40.727Z,23.30
2022-08-20T18:54:09.214Z,23.30
2022-08-20T18:56:44.093Z,23.30
2022-08-20T18:59:18.409Z,23.30
2022-08-20T19:01:49.400Z,23.20
2022-08-20T19:04:28.693Z,23.10
2022-08-20T19:07:01.143Z,23.00
2022-08-20T19:09:54.087Z,22.80
2022-08-20T19:12:50.429Z,22.80
2022-08-20T19:15:21.543Z,22.70
2022-08-20T19:18:02.943Z,22.70
2022-08-20T19:20:34.598Z,22.60
2022-08-20T19:23:07.467Z,22.50
2022-08-20T19:25:38.885Z,22.50
2022-08-20T19:28:20.676Z,22.10
2022-08-20T19:30:49.383Z,22.00
2022-08-20T19:33:27.366Z,21.80
2022-08-20T19:36:09.025Z,21.80
2022-08-20T19:38:44.521Z,21.90
2022-08-20T19:41:20.206Z,21.90
2022-08-20T19:44:02.289Z,21.90
2022-08-20T19:46:37.131Z,21.90
2022-08-20T19:49:21.741Z,22.00
2022-08-20T19:52:04.328Z,21.90
2022-08-20T19:54:33.010Z,21.70
2022-08-20T19:57:06.871Z,21.80
2022-08-20T19:59:36.413Z,21.90
2022-08-20T20:02:20.297Z,21.90
2022-08-20T20:04:54.958Z,21.80
2022-08-20T20:07:28.961Z,21.80
2022-08-20T20:09:59.514Z,21.50
2022-08-20T20:12:27.683Z,21.20
2022-08-20T20:14:57.622Z,21.20
2022-08-20T20:17:29.931Z,21.10
2022-08-20T20:20:00.241Z,21.20
2022-08-20T20:22:31.491Z,21.10
2022-08-20T20:25:08.385Z,21.00
2022-08-20T20:27:37.874Z,20.90
2022-08-20T20:30:11.985Z,20.90
2022-08-20T20:32:41.248Z,20.80
2022-08-20T20:35:09.677Z,21.00
2022-08-20T20:37:50.145Z,21.00
2022-08-20T20:40:25.785Z,21.10
2022-08-20T20:43:04.445Z,21.00
2022-08-20T20:45:38.387Z,20.90
2022-08-20T20:48:19.293Z,20.80
2022-08-20T20:50:49.312Z,20.80
2022-08-20T20:53:31.434Z,20.70
2022-08-20T20:56:28.377Z,20.80
2022-08-20T20:58:56.849Z,20.70
2022-08-20T21:01:27.269Z,20.70
2022-08-20T21:04:14.298Z,20.70
2022-08-20T21:06:42.374Z,20.60
2022-08-20T21:09:10.492Z,20.50
2022-08-20T21:11:39.022Z,20.60
2022-08-20T21:14:07.459Z,20.50
2022-08-20T21:16:37.085Z,20.50
2022-08-20T21:19:08.024Z,20.60
2022-08-20T21:21:37.179Z,20.50
2022-08-20T21:24:05.633Z,20.50
2022-08-20T21:26:34.150Z,20.40
2022-08-20T21:29:02.635Z,20.40
2022-08-20T21:31:33.763Z,20.40
2022-08-20T21:34:03.907Z,20.40
2022-08-20T21:36:32.019Z,20.50
2022-08-20T21:39:00.112Z,20.50
2022-08-20T21:41:29.658Z,20.50
2022-08-20T21:43:58.695Z,20.50
2022-08-20T21:46:28.976Z,20.30
2022-08-20T21:48:57.401Z,20.30
2022-08-20T21:51:27.157Z,20.20
2022-08-20T21:53:55.605Z,20.10
2022-08-20T21:56:23.892Z,20.10
2022-08-20T21:58:53.723Z,20.10
2022-08-20T22:01:23.892Z,20.00
2022-08-20T22:03:52.095Z,20.10
2022-08-20T22:06:20.287Z,20.10
2022-08-20T22:08:50.100Z,20.10
2022-08-20T22:11:18.727Z,20.10
2022-08-20T22:13:47.707Z,20.20
2022-08-20T22:16:23.087Z,20.10
2022-08-20T22:18:52.625Z,20.00
2022-08-20T22:21:23.533Z,20.10
2022-08-20T22:23:54.330Z,20.20
2022-08-20T22:26:22.891Z,20.30
2022-08-20T22:28:55.552Z,20.20
2022-08-20T22:31:27.794Z,20.30
2022-08-20T22:33:56.962Z,20.20
2022-08-20T22:36:25.960Z,20.10
2022-08-20T22:38:56.184Z,20.00
2022-08-20T22:41:25.486Z,19.90
2022-08-20T22:43:56.378Z,19.90
2022-08-20T22:46:27.120Z,20.00
2022-08-20T22:48:56.166Z,20.00
2022-08-20T22:51:29.202Z,19.80
2022-08-20T22:54:00.383Z,19.80
2022-08-20T22:56:30.031Z,19.80
2022-08-20T22:58:59.543Z,19.90
2022-08-20T23:01:28.832Z,19.90
2022-08-20T23:03:58.297Z,20.00
2022-08-20T23:06:27.924Z,20.00
2022-08-20T23:08:56.259Z,19.90
2022-08-20T23:11:26.056Z,19.90
2022-08-20T23:13:54.326Z,19.80
2022-08-20T23:16:22.379Z,19.80
2022-08-20T23:18:50.763Z,19.80
2022-08-20T23:21:19.302Z,19.80
2022-08-20T23:23:47.834Z,19.80
2022-08-20T23:26:22.391Z,19.70
2022-08-20T23:28:51.958Z,19.70
2022-08-20T23:31:20.149Z,19.70
2022-08-20T23:33:48.287Z,19.60
2022-08-20T23:36:19.710Z,19.70
2022-08-20T23:38:47.786Z,19.70
2022-08-20T23:41:15.808Z,19.60
2022-08-20T23:43:44.138Z,19.60
2022-08-20T23:46:14.058Z,19.50
2022-08-20T23:48:42.140Z,19.50
2022-08-20T23:51:10.495Z,19.40
2022-08-20T23:53:39.125Z,19.40
2022-08-20T23:56:07.886Z,19.30
2022-08-20T23:58:36.014Z,19.20
